Terminal Aerodrome Forecast
Issued by NWS Spokane, WA

Home | Current Version | Previous Version | Text Only | Print | Product List | Glossary On
Versions: 1 2 3 4 5 6 7 8 9 10 11 12 13 14 15 16 17
000
FTUS46 KOTX 072100 AAA
TAFGEG
TAF AMD
KGEG 072100Z 0721/0818 12003KT P6SM BKN028 BKN070
      TEMPO 0721/0723 SCT030 BKN070
     FM072300 06006KT P6SM SCT070 SCT250
     FM080600 04007KT P6SM SCT250
     FM081600 05009KT P6SM BKN200=

USA.gov is the U.S. government's official web portal to all federal, state and local government web resources and services.